MDT,Max TemperatureF,Mean TemperatureF,Min TemperatureF,Max Dew PointF,MeanDew PointF,Min DewpointF,Max Humidity, Mean Humidity, Min Humidity, Max Sea Level PressureIn, Mean Sea Level PressureIn, Min Sea Level PressureIn, Max VisibilityMiles, Mean VisibilityMiles, Min VisibilityMiles, Max Wind SpeedMPH, Mean Wind SpeedMPH, Max Gust SpeedMPH,PrecipitationIn, CloudCover, Events, WindDirDegrees
2013-7-1,77,66,55,56,52,46,87,62,36,30.31,30.20,30.12,10,9,2,24,12,33,0.34,5,Rain-Thunderstorm,145
2013-7-2,81,67,53,48,45,41,72,49,26,30.18,30.09,30.02,10,10,10,20,10,28,0.00,3,,149
2013-7-3,87,72,57,49,42,37,60,40,19,30.03,29.88,29.77,10,10,10,20,10,26,0.00,0,,172
2013-7-4,92,76,59,50,43,34,67,41,14,29.81,29.77,29.72,10,10,10,18,11,26,0.00,0,,200
2013-7-5,94,79,63,52,47,43,49,34,18,29.73,29.68,29.61,10,10,10,32,10,41,0.00,1,,248
2013-7-6,94,78,61,56,50,44,73,47,20,29.77,29.74,29.68,10,10,10,18,8,25,0.00,1,,320
2013-7-7,92,78,64,60,55,50,66,48,29,30.06,29.86,29.77,10,10,10,33,10,46,0.00,1,Thunderstorm,97
2013-7-8,95,80,65,61,53,41,78,49,20,29.92,29.87,29.82,10,10,10,20,10,28,0.00,0,,216
2013-7-9,98,82,65,61,49,37,87,50,13,30.03,29.93,29.88,10,10,8,28,9,35,0.00,0,,326
2013-7-10,90,76,62,66,59,54,78,59,40,30.16,30.04,29.92,10,9,0,35,12,41,0.70,2,Rain-Thunderstorm,136
2013-7-11,93,77,61,59,56,53,73,51,28,29.99,29.86,29.75,10,10,10,28,16,37,0.00,0,,179
2013-7-12,96,82,67,63,58,48,81,53,24,30.01,29.81,29.73,10,10,2,32,15,44,0.34,1,Rain-Thunderstorm,56
2013-7-13,91,78,64,64,61,57,93,64,34,30.14,29.95,29.83,10,8,1,41,14,64,1.21,3,Rain-Thunderstorm,326
2013-7-14,74,69,63,68,64,61,100,89,78,30.23,30.09,29.91,10,9,2,22,10,28,0.11,5,Rain-Thunderstorm,26
2013-7-15,79,71,62,64,58,42,100,66,31,30.25,30.14,30.02,10,7,1,25,10,30,0.00,5,,156
2013-7-16,80,67,53,58,52,49,84,60,36,30.18,30.10,30.05,10,10,10,26,15,37,0.00,1,,167
2013-7-17,86,73,59,59,55,51,90,61,32,30.18,30.10,30.03,10,10,10,35,18,43,0.00,0,,171
2013-7-18,93,77,60,57,55,48,84,54,23,30.02,29.93,29.84,10,10,10,29,14,38,0.00,0,,193
2013-7-19,78,68,57,63,59,55,97,74,50,30.19,30.03,29.90,10,10,10,28,16,36,T,4,Rain-Thunderstorm,360
2013-7-20,85,72,58,61,57,54,90,65,40,30.16,29.94,29.82,10,9,1,41,13,52,0.31,2,Rain-Thunderstorm,182
2013-7-21,89,74,58,64,60,51,100,68,36,30.03,29.90,29.71,10,6,0,23,13,28,0.00,4,Fog,150
2013-7-22,92,76,60,61,56,46,93,57,21,29.83,29.78,29.72,10,10,5,14,7,21,0.00,0,,158
2013-7-23,85,72,59,61,57,50,90,65,39,30.10,29.93,29.73,10,10,7,22,11,29,0.00,1,,112
2013-7-24,86,73,59,63,57,48,100,65,30,30.25,30.09,29.94,10,8,2,26,13,35,0.00,4,Thunderstorm,153
2013-7-25,77,67,56,61,58,55,93,74,54,30.20,30.04,29.94,10,10,10,22,12,26,0.01,1,Rain,356
2013-7-26,83,71,59,59,56,50,90,64,37,30.24,30.12,30.04,10,10,10,29,9,48,0.14,2,Rain-Thunderstorm,149
2013-7-27,72,63,54,56,54,50,100,79,57,30.14,30.04,29.95,10,8,0,21,10,29,T,4,Fog-Rain,87
2013-7-28,68,61,53,58,56,53,100,84,68,30.12,29.98,29.88,10,7,0,22,12,25,0.01,8,Fog,141
2013-7-29,84,72,59,63,58,53,100,69,37,30.06,29.95,29.86,10,8,0,26,13,32,0.00,5,Fog-Thunderstorm,178
2013-7-30,89,74,58,56,51,44,80,51,22,30.09,30.04,29.98,10,10,10,20,7,26,0.00,1,,232
2013-7-31,90,74,57,63,56,48,84,54,24,30.32,30.16,30.02,10,8,1,25,9,29,0.75,2,Rain-Thunderstorm,260